createdAt,value
2023-01-29T00:00:10.147Z,0.00
2023-01-29T00:00:51.931Z,-0.40
2023-01-29T00:01:33.567Z,-0.50
2023-01-29T00:02:15.240Z,-0.60
2023-01-29T00:02:56.969Z,-0.60
2023-01-29T00:03:38.693Z,-0.60
2023-01-29T00:04:20.631Z,-0.70
2023-01-29T00:05:16.628Z,-0.70
2023-01-29T00:06:07.220Z,-0.50
2023-01-29T00:06:48.985Z,-0.60
2023-01-29T00:07:30.689Z,-0.60
2023-01-29T00:08:12.384Z,-0.60
2023-01-29T00:08:54.373Z,-0.70
2023-01-29T00:09:36.038Z,-0.70
2023-01-29T00:10:18.023Z,-0.80
2023-01-29T00:11:07.218Z,-0.70
2023-01-29T00:11:48.995Z,-0.70
2023-01-29T00:12:30.715Z,-0.60
2023-01-29T00:13:12.534Z,-0.80
2023-01-29T00:13:54.533Z,-0.30
2023-01-29T00:14:36.203Z,-0.70
2023-01-29T00:15:18.737Z,-0.60
2023-01-29T00:16:01.483Z,-0.60
2023-01-29T00:16:43.224Z,1.50
2023-01-29T00:17:25.059Z,-0.80
2023-01-29T00:18:06.751Z,-0.90
2023-01-29T00:18:48.423Z,-0.70
2023-01-29T00:19:30.101Z,-0.70
2023-01-29T00:20:12.215Z,-0.70
2023-01-29T00:20:53.897Z,-0.50
2023-01-29T00:21:35.741Z,-0.40
2023-01-29T00:22:17.410Z,-0.50
2023-01-29T00:22:59.052Z,-0.70
2023-01-29T00:23:40.973Z,-0.60
2023-01-29T00:24:22.813Z,-0.70
2023-01-29T00:25:04.822Z,-0.50
2023-01-29T00:25:47.543Z,-0.70
2023-01-29T00:26:29.501Z,-0.60
2023-01-29T00:27:11.264Z,-0.90
2023-01-29T00:27:52.904Z,-0.70
2023-01-29T00:28:35.363Z,-0.80
2023-01-29T00:29:17.885Z,0.60
2023-01-29T00:30:19.781Z,-0.80
2023-01-29T00:31:13.067Z,-0.70
2023-01-29T00:31:54.832Z,-0.80
2023-01-29T00:32:36.767Z,-0.80
2023-01-29T00:33:18.415Z,-0.90
2023-01-29T00:34:00.080Z,-0.90
2023-01-29T00:34:41.758Z,-0.90
2023-01-29T00:35:23.470Z,-0.90
2023-01-29T00:36:07.194Z,-0.90
2023-01-29T00:36:48.997Z,-0.60
2023-01-29T00:37:30.685Z,-0.80
2023-01-29T00:38:12.337Z,-0.80
2023-01-29T00:38:58.761Z,-0.50
2023-01-29T00:39:47.889Z,-0.80
2023-01-29T00:40:50.091Z,-0.70
2023-01-29T00:41:51.223Z,-0.80
2023-01-29T00:42:51.415Z,-0.50
2023-01-29T00:43:51.906Z,-0.70
2023-01-29T00:44:52.303Z,-0.70
2023-01-29T00:45:36.617Z,-0.80
2023-01-29T00:46:18.367Z,-0.90
2023-01-29T00:47:00.309Z,-0.70
2023-01-29T00:47:42.006Z,0.70
2023-01-29T00:48:23.734Z,-1.00
2023-01-29T00:49:06.093Z,-0.50
2023-01-29T00:49:47.827Z,-0.90
2023-01-29T00:50:30.366Z,-0.90
2023-01-29T00:51:12.048Z,-0.90
2023-01-29T00:52:12.558Z,-0.90
2023-01-29T00:52:54.646Z,-0.60
2023-01-29T00:53:36.347Z,-0.90
2023-01-29T00:54:18.070Z,-1.10
2023-01-29T00:55:00.765Z,-0.90
2023-01-29T00:55:42.547Z,-0.90
2023-01-29T00:56:27.714Z,-0.90
2023-01-29T00:57:09.577Z,-0.90
2023-01-29T00:57:51.395Z,-0.90
2023-01-29T00:58:35.763Z,-0.80
2023-01-29T00:59:19.841Z,-0.90
2023-01-29T01:00:03.745Z,-0.90
2023-01-29T01:00:47.720Z,-0.20
2023-01-29T01:01:48.295Z,-0.90
2023-01-29T01:02:48.831Z,-0.60
2023-01-29T01:03:32.652Z,-1.00
2023-01-29T01:04:14.388Z,-0.90
2023-01-29T01:04:56.207Z,-1.00
2023-01-29T01:05:39.105Z,-0.90
2023-01-29T01:06:20.866Z,-0.90
2023-01-29T01:07:05.006Z,-0.90
2023-01-29T01:07:48.862Z,-0.70
2023-01-29T01:08:49.225Z,-0.90
2023-01-29T01:09:49.662Z,-1.00
2023-01-29T01:10:33.771Z,-0.90
2023-01-29T01:11:17.747Z,0.60
2023-01-29T01:11:59.590Z,-0.80
2023-01-29T01:12:41.351Z,1.40
2023-01-29T01:13:23.081Z,-0.90
2023-01-29T01:14:04.812Z,-1.10
2023-01-29T01:14:46.808Z,-1.10
2023-01-29T01:15:31.911Z,-1.00
2023-01-29T01:16:16.974Z,-0.90
2023-01-29T01:16:59.108Z,-1.00
2023-01-29T01:17:40.867Z,-1.00
2023-01-29T01:18:22.891Z,-1.10
2023-01-29T01:19:05.066Z,-0.90
2023-01-29T01:19:46.861Z,-1.50
2023-01-29T01:20:30.750Z,-0.90
2023-01-29T01:21:12.446Z,-0.90
2023-01-29T01:21:54.546Z,-1.00
2023-01-29T01:22:36.269Z,-1.00
2023-01-29T01:23:19.778Z,-0.90
2023-01-29T01:24:01.935Z,-1.10
2023-01-29T01:24:43.951Z,-0.90
2023-01-29T01:25:27.063Z,-0.90
2023-01-29T01:26:13.018Z,-1.00
2023-01-29T01:26:54.784Z,-0.90
2023-01-29T01:27:40.951Z,-1.10
2023-01-29T01:28:24.838Z,-1.00
2023-01-29T01:29:06.890Z,-1.30
2023-01-29T01:29:48.953Z,-1.00
2023-01-29T01:30:30.946Z,-1.20
2023-01-29T01:31:14.177Z,-1.00
2023-01-29T01:31:56.217Z,1.00
2023-01-29T01:32:38.947Z,-1.10
2023-01-29T01:33:20.700Z,-0.90
2023-01-29T01:34:02.483Z,-1.00
2023-01-29T01:34:47.329Z,-1.10
2023-01-29T01:35:29.719Z,-1.00
2023-01-29T01:36:11.465Z,-0.90
2023-01-29T01:36:54.879Z,-1.10
2023-01-29T01:37:41.896Z,-1.10
2023-01-29T01:38:25.955Z,-1.00
2023-01-29T01:39:10.072Z,-1.10
2023-01-29T01:39:51.992Z,-1.10
2023-01-29T01:40:34.016Z,-1.20
2023-01-29T01:41:18.336Z,-1.00
2023-01-29T01:42:00.276Z,-0.90
2023-01-29T01:42:41.983Z,-0.90
2023-01-29T01:43:24.072Z,-1.00
2023-01-29T01:44:06.647Z,-1.10
2023-01-29T01:44:54.772Z,-1.10
2023-01-29T01:45:37.129Z,-0.10
2023-01-29T01:46:19.273Z,-1.00
2023-01-29T01:47:01.964Z,-1.00
2023-01-29T01:47:48.831Z,-1.20
2023-01-29T01:48:33.002Z,-1.00
2023-01-29T01:49:18.953Z,-1.20
2023-01-29T01:50:09.417Z,-1.00
2023-01-29T01:50:53.863Z,-1.10
2023-01-29T01:51:40.433Z,-1.20
2023-01-29T01:52:22.534Z,1.30
2023-01-29T01:53:08.975Z,-1.00
2023-01-29T01:54:02.593Z,-1.10
2023-01-29T01:54:44.873Z,-1.10
2023-01-29T01:55:29.401Z,-1.20
2023-01-29T01:56:26.868Z,-1.00
2023-01-29T01:57:17.936Z,-1.00
2023-01-29T01:58:24.126Z,-1.00
2023-01-29T01:59:12.037Z,-1.00
2023-01-29T02:00:01.377Z,-1.00
2023-01-29T02:00:43.221Z,-0.60
2023-01-29T02:01:30.104Z,-0.90
2023-01-29T02:02:30.804Z,-1.20
2023-01-29T02:03:31.903Z,-1.10
2023-01-29T02:04:42.303Z,-0.60
2023-01-29T02:05:43.623Z,-1.10
2023-01-29T02:06:44.090Z,-1.30
2023-01-29T02:07:44.448Z,-1.10
2023-01-29T02:09:01.864Z,-1.20
2023-01-29T02:10:01.964Z,-1.00
2023-01-29T02:10:47.009Z,-1.10
2023-01-29T02:11:31.355Z,-1.10
2023-01-29T02:12:16.207Z,-1.30
2023-01-29T02:13:00.053Z,-1.30
2023-01-29T02:13:45.338Z,-1.40
2023-01-29T02:14:27.157Z,-1.20
2023-01-29T02:15:09.876Z,-1.30
2023-01-29T02:15:51.707Z,-1.10
2023-01-29T02:16:35.585Z,-1.30
2023-01-29T02:17:19.549Z,-1.10
2023-01-29T02:18:01.740Z,-1.30
2023-01-29T02:18:43.560Z,-1.00
2023-01-29T02:19:46.945Z,-1.10
2023-01-29T02:20:34.469Z,-1.30
2023-01-29T02:21:36.456Z,-1.30
2023-01-29T02:22:50.068Z,-1.00
2023-01-29T02:23:46.608Z,-1.20
2023-01-29T02:25:12.132Z,-1.20
2023-01-29T02:26:51.250Z,-1.20
2023-01-29T02:27:54.293Z,-1.20
2023-01-29T02:28:51.017Z,-1.20
2023-01-29T02:29:52.687Z,-1.10
2023-01-29T02:30:47.124Z,-1.10
2023-01-29T02:31:43.172Z,-1.20
2023-01-29T02:32:40.444Z,-1.10
2023-01-29T02:33:52.622Z,-1.00
2023-01-29T02:35:06.188Z,-1.00
2023-01-29T02:36:04.017Z,-1.10
2023-01-29T02:36:50.469Z,-1.20
2023-01-29T02:38:00.171Z,-1.30
2023-01-29T02:38:58.437Z,-1.20
2023-01-29T02:39:58.179Z,-1.20
2023-01-29T02:40:49.338Z,-1.10
2023-01-29T02:41:58.810Z,-1.00
2023-01-29T02:43:22.574Z,-1.20
2023-01-29T02:44:12.657Z,-1.20
2023-01-29T02:45:11.415Z,-1.20
2023-01-29T02:46:16.387Z,-1.20
2023-01-29T02:47:15.321Z,-1.30
2023-01-29T02:47:59.195Z,-1.40
2023-01-29T02:48:59.355Z,-1.10
2023-01-29T02:50:08.393Z,-1.30
2023-01-29T02:51:50.278Z,-1.60
2023-01-29T02:52:43.295Z,-1.30
2023-01-29T02:53:27.044Z,-1.40
2023-01-29T02:54:20.517Z,-1.20
2023-01-29T02:55:08.728Z,-1.20
2023-01-29T02:56:12.554Z,-1.30
2023-01-29T02:57:10.099Z,-1.20
2023-01-29T02:57:56.733Z,-1.30
2023-01-29T02:58:47.755Z,-1.30
2023-01-29T03:00:23.464Z,-1.30
2023-01-29T03:01:30.340Z,-1.30
2023-01-29T03:02:17.294Z,-1.20
2023-01-29T03:03:23.535Z,-1.10
2023-01-29T03:04:11.820Z,-1.30
2023-01-29T03:05:03.711Z,-1.10
2023-01-29T03:06:02.491Z,-1.40
2023-01-29T03:07:00.469Z,-1.10
2023-01-29T03:07:52.010Z,-0.80
2023-01-29T03:08:45.584Z,-0.70
2023-01-29T03:09:36.339Z,-1.30
2023-01-29T03:10:50.241Z,-1.30
2023-01-29T03:11:39.644Z,-0.50
2023-01-29T03:12:33.911Z,-1.50
2023-01-29T03:13:59.887Z,-1.50
2023-01-29T03:15:01.659Z,-1.50
2023-01-29T03:15:53.556Z,-1.30
2023-01-29T03:16:43.929Z,-1.40
2023-01-29T03:17:31.594Z,-1.30
2023-01-29T03:18:19.824Z,-1.40
2023-01-29T03:19:07.690Z,-1.40
2023-01-29T03:19:49.724Z,-1.40
2023-01-29T03:20:40.796Z,-1.40
2023-01-29T03:21:56.647Z,0.90
2023-01-29T03:22:40.532Z,-1.00
2023-01-29T03:23:47.390Z,-0.70
2023-01-29T03:25:07.824Z,-1.30
2023-01-29T03:26:13.287Z,-1.50
2023-01-29T03:27:14.731Z,-1.40
2023-01-29T03:28:20.449Z,-0.50
2023-01-29T03:29:23.585Z,-1.40
2023-01-29T03:30:27.482Z,-1.10
2023-01-29T03:31:30.907Z,-1.50
2023-01-29T03:32:16.031Z,-1.50
2023-01-29T03:33:00.886Z,-1.80
2023-01-29T03:34:00.314Z,-1.50
2023-01-29T03:34:46.709Z,-1.60
2023-01-29T03:35:36.530Z,-0.40
2023-01-29T03:36:37.635Z,-1.40
2023-01-29T03:37:26.033Z,-1.40
2023-01-29T03:38:51.917Z,-1.50
2023-01-29T03:39:34.370Z,-1.60
2023-01-29T03:41:19.458Z,-1.60
2023-01-29T03:42:17.029Z,-1.60
2023-01-29T03:43:13.493Z,-1.50
2023-01-29T03:44:10.343Z,-1.50
2023-01-29T03:45:02.070Z,-1.20
2023-01-29T03:46:01.565Z,-1.60
2023-01-29T03:46:56.566Z,-1.40
2023-01-29T03:48:07.967Z,-1.50
2023-01-29T03:49:10.334Z,-1.30
2023-01-29T03:50:03.816Z,-1.40
2023-01-29T03:51:06.348Z,-1.40
2023-01-29T03:51:58.136Z,-1.50
2023-01-29T03:53:12.573Z,-1.40
2023-01-29T03:54:12.749Z,-1.50
2023-01-29T03:55:10.909Z,-1.40
2023-01-29T03:56:07.170Z,-1.30
2023-01-29T03:56:51.612Z,-1.50
2023-01-29T03:57:54.834Z,-1.50
2023-01-29T03:59:17.698Z,-1.20
2023-01-29T04:00:02.102Z,-1.40
2023-01-29T04:01:11.621Z,-1.50
2023-01-29T04:02:00.521Z,-1.50
2023-01-29T04:03:12.673Z,-1.50
2023-01-29T04:03:59.610Z,-1.40
2023-01-29T04:04:47.646Z,-0.60
2023-01-29T04:05:39.023Z,-1.30
2023-01-29T04:06:27.424Z,-1.40
2023-01-29T04:07:15.409Z,-1.40
2023-01-29T04:08:04.615Z,-1.60
2023-01-29T04:09:02.914Z,-1.30
2023-01-29T04:09:55.488Z,-1.40
2023-01-29T04:10:40.220Z,-1.30
2023-01-29T04:11:25.660Z,-1.40
2023-01-29T04:12:12.154Z,-1.50
2023-01-29T04:13:02.741Z,-1.40
2023-01-29T04:13:48.426Z,-1.50
2023-01-29T04:14:31.938Z,-1.60
2023-01-29T04:15:16.120Z,-1.50
2023-01-29T04:16:00.974Z,-1.50
2023-01-29T04:16:48.520Z,-1.50
2023-01-29T04:17:41.787Z,-1.60
2023-01-29T04:18:24.864Z,-1.60
2023-01-29T04:19:06.779Z,-1.50
2023-01-29T04:19:48.849Z,-1.50
2023-01-29T04:20:30.571Z,-1.60
2023-01-29T04:21:13.096Z,-1.60
2023-01-29T04:22:47.546Z,-1.70
2023-01-29T04:23:29.399Z,-1.60
2023-01-29T04:24:15.877Z,-1.50
2023-01-29T04:25:02.532Z,-1.60
2023-01-29T04:25:52.632Z,-1.60
2023-01-29T04:26:53.013Z,0.50
2023-01-29T04:27:43.298Z,-1.40
2023-01-29T04:28:38.054Z,-1.50
2023-01-29T04:29:46.650Z,-1.50
2023-01-29T04:30:57.404Z,-1.70
2023-01-29T04:32:13.849Z,-1.60
2023-01-29T04:33:29.527Z,-1.70
2023-01-29T04:34:28.514Z,-1.70
2023-01-29T04:35:32.871Z,-1.70
2023-01-29T04:36:46.489Z,-1.50
2023-01-29T04:37:32.804Z,-1.50
2023-01-29T04:38:33.776Z,-1.60
2023-01-29T04:39:51.638Z,-1.50
2023-01-29T04:41:40.955Z,-1.80
2023-01-29T04:42:25.264Z,-1.50
2023-01-29T04:43:15.747Z,-1.70
2023-01-29T04:44:16.165Z,-1.50
2023-01-29T04:45:32.892Z,-1.90
2023-01-29T04:46:25.808Z,-1.70
2023-01-29T04:47:30.018Z,-1.70
2023-01-29T04:48:19.743Z,-1.60
2023-01-29T04:49:16.688Z,-1.70
2023-01-29T04:50:16.545Z,-1.50
2023-01-29T04:51:12.990Z,-1.60
2023-01-29T04:53:53.884Z,-1.60
2023-01-29T04:55:06.066Z,-1.60
2023-01-29T04:55:57.289Z,-1.60
2023-01-29T04:56:56.990Z,-1.60
2023-01-29T04:57:55.311Z,-1.50
2023-01-29T04:58:40.007Z,-1.50
2023-01-29T04:59:31.830Z,-1.60
2023-01-29T05:00:21.711Z,-1.60
2023-01-29T05:01:06.779Z,-1.60
2023-01-29T05:01:49.662Z,-0.70
2023-01-29T05:02:34.470Z,-1.80
2023-01-29T05:03:16.881Z,-1.80
2023-01-29T05:04:02.281Z,-0.40
2023-01-29T05:04:45.462Z,-1.20
2023-01-29T05:05:29.011Z,-1.50
2023-01-29T05:06:11.896Z,-0.60
2023-01-29T05:06:54.024Z,-1.50
2023-01-29T05:07:38.575Z,-0.50
2023-01-29T05:08:24.070Z,-1.60
2023-01-29T05:09:08.164Z,0.60
2023-01-29T05:09:51.205Z,-1.60
2023-01-29T05:10:37.210Z,-0.90
2023-01-29T05:11:20.001Z,-1.70
2023-01-29T05:12:03.125Z,-1.60
2023-01-29T05:12:52.121Z,-0.50
2023-01-29T05:13:39.416Z,-1.70
2023-01-29T05:14:23.383Z,-1.30
2023-01-29T05:15:11.733Z,0.80
2023-01-29T05:15:58.827Z,-1.60
2023-01-29T05:16:49.952Z,-1.60
2023-01-29T05:17:32.091Z,-1.30
2023-01-29T05:18:14.164Z,-1.60
2023-01-29T05:18:56.052Z,-1.60
2023-01-29T05:19:40.170Z,-1.70
2023-01-29T05:20:22.112Z,-1.60
2023-01-29T05:21:07.413Z,-1.40
2023-01-29T05:21:50.369Z,-1.30
2023-01-29T05:22:32.438Z,-1.60
2023-01-29T05:23:18.529Z,-1.60
2023-01-29T05:24:16.455Z,-1.50
2023-01-29T05:24:58.323Z,-1.50
2023-01-29T05:25:40.108Z,-1.50
2023-01-29T05:26:42.847Z,-0.90
2023-01-29T05:27:50.534Z,-1.50
2023-01-29T05:28:32.501Z,-1.50
2023-01-29T05:29:17.085Z,-1.60
2023-01-29T05:29:59.042Z,-1.30
2023-01-29T05:30:41.130Z,-2.00
2023-01-29T05:31:25.022Z,-1.10
2023-01-29T05:32:06.942Z,-1.60
2023-01-29T05:32:49.086Z,-1.70
2023-01-29T05:33:31.988Z,-1.40
2023-01-29T05:34:14.093Z,-0.40
2023-01-29T05:34:55.884Z,-1.60
2023-01-29T05:35:37.667Z,-1.40
2023-01-29T05:36:22.154Z,-1.30
2023-01-29T05:37:04.070Z,-1.40
2023-01-29T05:37:46.048Z,-1.50
2023-01-29T05:38:27.973Z,0.00
2023-01-29T05:39:12.120Z,-1.10
2023-01-29T05:39:54.100Z,-0.90
2023-01-29T05:40:36.454Z,0.90
2023-01-29T05:41:18.248Z,-1.20
2023-01-29T05:42:00.065Z,-1.50
2023-01-29T05:42:42.003Z,-1.40
2023-01-29T05:43:25.242Z,-1.40
2023-01-29T05:44:07.079Z,-1.50
2023-01-29T05:44:49.090Z,-1.30
2023-01-29T05:45:32.055Z,-1.40
2023-01-29T05:46:14.094Z,-1.40
2023-01-29T05:46:56.099Z,-1.10
2023-01-29T05:47:37.893Z,-1.50
2023-01-29T05:48:22.242Z,-1.30
2023-01-29T05:49:07.157Z,-1.40
2023-01-29T05:49:49.122Z,-0.40
2023-01-29T05:50:31.031Z,-0.80
2023-01-29T05:51:15.167Z,-1.40
2023-01-29T05:51:57.018Z,-1.40
2023-01-29T05:52:39.108Z,0.70
2023-01-29T05:53:20.986Z,-1.50
2023-01-29T05:54:05.238Z,-0.90
2023-01-29T05:54:47.131Z,-1.60
2023-01-29T05:55:32.134Z,-1.20
2023-01-29T05:56:14.094Z,-1.30
2023-01-29T05:56:56.098Z,-0.60
2023-01-29T05:57:39.352Z,-1.40
2023-01-29T05:58:21.521Z,-1.30
2023-01-29T05:59:03.346Z,-1.50
2023-01-29T05:59:45.130Z,-1.10
2023-01-29T06:00:27.044Z,-1.50
2023-01-29T06:01:15.181Z,-1.30
2023-01-29T06:01:58.282Z,-1.40
2023-01-29T06:02:40.441Z,0.50
2023-01-29T06:03:22.428Z,-1.50
2023-01-29T06:04:04.608Z,-1.50
2023-01-29T06:04:46.662Z,-1.50
2023-01-29T06:05:28.513Z,-1.10
2023-01-29T06:06:10.451Z,-1.60
2023-01-29T06:06:52.421Z,-1.50
2023-01-29T06:07:34.531Z,-1.40
2023-01-29T06:08:16.493Z,-1.50
2023-01-29T06:08:58.433Z,-1.10
2023-01-29T06:09:40.193Z,-0.20
2023-01-29T06:10:22.100Z,-1.20
2023-01-29T06:11:04.688Z,-1.40
2023-01-29T06:11:46.654Z,-1.30
2023-01-29T06:12:28.421Z,-1.40
2023-01-29T06:13:10.214Z,-1.50
2023-01-29T06:13:52.417Z,-1.30
2023-01-29T06:14:34.225Z,-0.70
2023-01-29T06:15:16.173Z,-1.30
2023-01-29T06:16:00.340Z,-1.30
2023-01-29T06:16:42.206Z,-1.50
2023-01-29T06:17:24.254Z,-1.40
2023-01-29T06:18:06.320Z,-1.30
2023-01-29T06:18:50.163Z,-1.50
2023-01-29T06:19:31.936Z,-1.40
2023-01-29T06:20:14.364Z,-1.50
2023-01-29T06:21:01.104Z,-1.50
2023-01-29T06:21:45.151Z,-0.90
2023-01-29T06:22:27.225Z,-1.40
2023-01-29T06:23:09.294Z,-1.50
2023-01-29T06:23:53.834Z,-1.50
2023-01-29T06:24:38.468Z,-1.40
2023-01-29T06:25:20.252Z,-1.60
2023-01-29T06:26:07.547Z,-1.40
2023-01-29T06:26:49.698Z,-1.50
2023-01-29T06:27:31.679Z,-1.50
2023-01-29T06:28:13.426Z,-1.60
2023-01-29T06:28:55.211Z,-1.60
2023-01-29T06:29:36.993Z,-1.50
2023-01-29T06:30:18.935Z,-1.40
2023-01-29T06:31:23.366Z,-1.50
2023-01-29T06:32:05.564Z,-1.50
2023-01-29T06:32:47.573Z,-1.40
2023-01-29T06:33:29.830Z,-1.50
2023-01-29T06:34:11.718Z,-1.60
2023-01-29T06:34:53.579Z,0.80
2023-01-29T06:35:35.281Z,-1.50
2023-01-29T06:36:17.223Z,-1.60
2023-01-29T06:36:58.970Z,-1.50
2023-01-29T06:37:41.263Z,-1.10
2023-01-29T06:38:23.543Z,-1.60
2023-01-29T06:39:05.301Z,-1.60
2023-01-29T06:39:47.195Z,-1.50
2023-01-29T06:40:29.332Z,-1.60
2023-01-29T06:41:15.439Z,-1.50
2023-01-29T06:41:57.142Z,-1.20
2023-01-29T06:42:38.882Z,-1.50
2023-01-29T06:43:21.681Z,-1.50
2023-01-29T06:44:03.664Z,-0.30
2023-01-29T06:44:45.436Z,-1.50
2023-01-29T06:45:27.197Z,-1.50
2023-01-29T06:46:08.955Z,-1.50
2023-01-29T06:46:50.666Z,-1.60
2023-01-29T06:47:32.495Z,-1.60
2023-01-29T06:48:14.342Z,-1.50
2023-01-29T06:48:59.560Z,-1.40
2023-01-29T06:49:41.278Z,-1.40
2023-01-29T06:50:25.587Z,-1.50
2023-01-29T06:51:09.398Z,-1.50
2023-01-29T06:51:51.293Z,-1.40
2023-01-29T06:52:35.205Z,-1.50
2023-01-29T06:53:20.379Z,-1.60
2023-01-29T06:54:02.318Z,-1.50
2023-01-29T06:54:44.387Z,-3.40
2023-01-29T06:55:26.347Z,-1.40
2023-01-29T06:56:10.913Z,-1.20
2023-01-29T06:56:52.866Z,0.40
2023-01-29T06:57:34.907Z,-1.50
2023-01-29T06:58:16.864Z,-1.40
2023-01-29T06:58:58.668Z,-1.40
2023-01-29T06:59:40.423Z,-1.40
2023-01-29T07:00:22.555Z,-1.40
2023-01-29T07:01:47.615Z,-1.60
2023-01-29T07:02:29.863Z,-1.80
2023-01-29T07:03:11.850Z,-1.20
2023-01-29T07:03:53.688Z,-1.40
2023-01-29T07:04:36.738Z,-1.10
2023-01-29T07:05:18.503Z,-1.40
2023-01-29T07:06:00.874Z,-1.50
2023-01-29T07:06:43.414Z,-1.50
2023-01-29T07:07:27.513Z,-1.70
2023-01-29T07:08:12.395Z,-1.50
2023-01-29T07:08:54.503Z,-1.10
2023-01-29T07:09:36.417Z,-1.70
2023-01-29T07:10:20.559Z,-1.50
2023-01-29T07:11:05.339Z,-1.50
2023-01-29T07:11:47.948Z,-1.40
2023-01-29T07:12:29.987Z,-1.60
2023-01-29T07:13:11.910Z,-1.50
2023-01-29T07:13:53.788Z,-1.50
2023-01-29T07:14:35.640Z,-1.40
2023-01-29T07:15:23.417Z,-1.30
2023-01-29T07:16:07.421Z,-1.40
2023-01-29T07:16:49.506Z,-1.30
2023-01-29T07:17:31.411Z,-1.30
2023-01-29T07:18:13.205Z,-1.40
2023-01-29T07:18:55.030Z,-1.30
2023-01-29T07:19:36.939Z,-1.40
2023-01-29T07:20:18.932Z,-1.30
2023-01-29T07:21:08.410Z,-1.40
2023-01-29T07:21:52.552Z,-0.60
2023-01-29T07:22:34.326Z,-1.20
2023-01-29T07:23:16.621Z,-1.00
2023-01-29T07:24:40.566Z,-1.50
2023-01-29T07:25:22.556Z,-1.20
2023-01-29T07:26:05.854Z,-1.40
2023-01-29T07:26:47.840Z,-1.20
2023-01-29T07:27:29.873Z,-1.20
2023-01-29T07:28:11.859Z,-1.00
2023-01-29T07:28:53.637Z,-0.20
2023-01-29T07:29:35.402Z,-1.10
2023-01-29T07:30:18.302Z,-0.10
2023-01-29T07:31:00.524Z,-0.90
2023-01-29T07:31:42.573Z,-0.80
2023-01-29T07:32:24.574Z,-0.90
2023-01-29T07:33:09.460Z,-0.90
2023-01-29T07:33:51.471Z,-0.80
2023-01-29T07:34:35.613Z,-1.00
2023-01-29T07:35:17.502Z,-0.70
2023-01-29T07:35:59.528Z,-0.80
2023-01-29T07:36:41.551Z,-0.70
2023-01-29T07:37:25.701Z,-0.60
2023-01-29T07:38:08.795Z,-0.60
2023-01-29T07:38:51.535Z,-0.40
2023-01-29T07:41:44.994Z,-0.40
2023-01-29T07:42:27.460Z,-0.50
2023-01-29T07:43:10.671Z,-0.50
2023-01-29T07:43:52.598Z,-0.50
2023-01-29T07:44:34.566Z,-0.30
2023-01-29T07:45:16.509Z,-0.40
2023-01-29T07:46:02.528Z,-0.40
2023-01-29T07:46:44.622Z,-0.30
2023-01-29T07:47:28.793Z,-0.60
2023-01-29T07:48:14.491Z,-0.70
2023-01-29T07:48:57.903Z,-0.50
2023-01-29T07:49:39.980Z,-0.50
2023-01-29T07:50:24.229Z,-0.40
2023-01-29T07:51:06.614Z,-0.40
2023-01-29T07:51:50.635Z,-0.30
2023-01-29T07:52:33.655Z,-0.30
2023-01-29T07:53:15.586Z,-0.30
2023-01-29T07:53:57.315Z,-0.30
2023-01-29T07:54:39.074Z,-0.20
2023-01-29T07:55:21.145Z,-0.10
2023-01-29T07:56:05.975Z,-0.10
2023-01-29T07:56:47.784Z,-0.20
2023-01-29T07:57:30.661Z,-0.20
2023-01-29T07:58:12.683Z,-0.20
2023-01-29T07:58:54.708Z,-0.10
2023-01-29T07:59:36.564Z,-0.20
2023-01-29T08:00:19.019Z,-0.30
2023-01-29T08:01:04.643Z,-0.40
2023-01-29T08:01:46.578Z,-0.10
2023-01-29T08:02:30.690Z,-0.10
2023-01-29T08:03:16.209Z,-0.10
2023-01-29T08:03:58.127Z,-0.10
2023-01-29T08:04:40.133Z,-0.10
2023-01-29T08:05:22.066Z,-0.20
2023-01-29T08:06:04.658Z,-0.10
2023-01-29T08:06:46.630Z,-0.10
2023-01-29T08:07:31.063Z,0.20
2023-01-29T08:08:13.586Z,0.00
2023-01-29T08:08:57.316Z,0.00
2023-01-29T08:09:39.078Z,0.00
2023-01-29T08:10:21.714Z,0.10
2023-01-29T08:11:05.574Z,0.00
2023-01-29T08:11:47.375Z,-0.10
2023-01-29T08:12:29.241Z,0.10
2023-01-29T08:13:11.042Z,0.00
2023-01-29T08:13:54.405Z,0.20
2023-01-29T08:14:36.220Z,0.10
2023-01-29T08:15:18.222Z,0.00
2023-01-29T08:16:01.971Z,0.10
2023-01-29T08:16:43.856Z,1.80
2023-01-29T08:17:25.786Z,0.10
2023-01-29T08:18:07.726Z,0.10
2023-01-29T08:18:49.560Z,0.10
2023-01-29T08:19:32.028Z,0.20
2023-01-29T08:20:13.841Z,0.20
2023-01-29T08:21:02.577Z,0.20
2023-01-29T08:21:44.654Z,0.20
2023-01-29T08:23:15.714Z,0.10
2023-01-29T08:23:57.803Z,0.30
2023-01-29T08:24:53.413Z,0.40
2023-01-29T08:25:41.706Z,0.20
2023-01-29T08:26:25.630Z,0.10
2023-01-29T08:27:07.688Z,0.20
2023-01-29T08:27:49.738Z,1.70
2023-01-29T08:28:31.709Z,0.20
2023-01-29T08:29:13.644Z,0.30
2023-01-29T08:29:57.850Z,0.20
2023-01-29T08:30:39.756Z,0.20
2023-01-29T08:31:21.758Z,0.10
2023-01-29T08:32:05.686Z,0.30
2023-01-29T08:32:47.677Z,0.10
2023-01-29T08:33:38.328Z,0.20
2023-01-29T08:34:20.954Z,0.30
2023-01-29T08:35:02.772Z,0.30
2023-01-29T08:35:50.167Z,0.40
2023-01-29T08:37:15.107Z,0.40
2023-01-29T08:38:03.893Z,0.30
2023-01-29T08:38:45.595Z,0.30
2023-01-29T08:39:27.366Z,0.20
2023-01-29T08:40:10.922Z,0.20
2023-01-29T08:40:52.720Z,0.30
2023-01-29T08:41:34.811Z,0.10
2023-01-29T08:43:09.482Z,0.40
2023-01-29T08:44:34.374Z,0.40
2023-01-29T08:45:16.723Z,0.40
2023-01-29T08:46:40.866Z,0.30
2023-01-29T08:47:22.688Z,0.30
2023-01-29T08:48:04.848Z,0.30
2023-01-29T08:48:46.868Z,0.40
2023-01-29T08:49:28.776Z,0.40
2023-01-29T08:50:11.204Z,0.40
2023-01-29T08:50:52.980Z,0.40
2023-01-29T08:51:34.854Z,0.50
2023-01-29T08:52:16.836Z,0.40
2023-01-29T08:53:00.802Z,0.40
2023-01-29T08:53:42.673Z,0.40
2023-01-29T08:54:27.179Z,0.40
2023-01-29T08:55:09.120Z,0.60
2023-01-29T08:55:50.851Z,0.40
2023-01-29T08:56:32.630Z,0.40
2023-01-29T08:57:14.330Z,0.50
2023-01-29T08:57:59.252Z,0.40
2023-01-29T08:58:40.998Z,0.20
2023-01-29T08:59:22.957Z,0.50
2023-01-29T09:00:06.916Z,0.50
2023-01-29T09:00:51.247Z,0.50
2023-01-29T09:01:33.039Z,0.60
2023-01-29T09:02:14.971Z,0.50
2023-01-29T09:02:57.090Z,0.60
2023-01-29T09:03:45.761Z,0.30
2023-01-29T09:04:27.479Z,0.50
2023-01-29T09:05:10.177Z,0.60
2023-01-29T09:05:51.990Z,0.60
2023-01-29T09:06:36.080Z,0.70
2023-01-29T09:07:17.801Z,0.70
2023-01-29T09:07:59.936Z,0.70
2023-01-29T09:09:26.666Z,0.60
2023-01-29T09:10:09.165Z,0.70
2023-01-29T09:10:50.911Z,0.60
2023-01-29T09:11:35.088Z,0.60
2023-01-29T09:12:17.113Z,0.70
2023-01-29T09:12:58.980Z,0.60
2023-01-29T09:13:40.901Z,0.70
2023-01-29T09:14:22.757Z,0.70
2023-01-29T09:15:04.983Z,0.70
2023-01-29T09:15:46.976Z,0.80
2023-01-29T09:16:31.036Z,0.80
2023-01-29T09:17:12.840Z,0.70
2023-01-29T09:17:54.964Z,0.90
2023-01-29T09:18:37.084Z,0.80
2023-01-29T09:19:21.395Z,0.80
2023-01-29T09:20:06.980Z,0.80
2023-01-29T09:20:51.219Z,0.80
2023-01-29T09:21:32.893Z,0.80
2023-01-29T09:22:14.935Z,1.00
2023-01-29T09:22:59.075Z,1.10
2023-01-29T09:23:40.953Z,0.90
2023-01-29T09:24:22.661Z,1.40
2023-01-29T09:25:05.013Z,1.00
2023-01-29T09:25:46.981Z,1.10
2023-01-29T09:26:28.766Z,1.30
2023-01-29T09:27:10.952Z,1.00
2023-01-29T09:27:54.360Z,1.20
2023-01-29T09:28:36.222Z,1.00
2023-01-29T09:29:17.958Z,1.10
2023-01-29T09:30:00.064Z,1.10
2023-01-29T09:30:42.023Z,1.10
2023-01-29T09:31:24.161Z,1.10
2023-01-29T09:32:06.896Z,1.30
2023-01-29T09:33:37.951Z,1.20
2023-01-29T09:34:22.251Z,1.20
2023-01-29T09:35:04.313Z,1.00
2023-01-29T09:35:47.152Z,1.10
2023-01-29T09:37:53.522Z,1.30
2023-01-29T09:38:38.173Z,1.20
2023-01-29T09:39:20.109Z,-0.20
2023-01-29T09:40:01.904Z,1.20
2023-01-29T09:40:52.074Z,1.20
2023-01-29T09:41:49.360Z,1.30
2023-01-29T09:42:49.532Z,1.00
2023-01-29T09:43:51.973Z,1.20
2023-01-29T09:44:52.032Z,1.00
2023-01-29T09:45:34.244Z,1.10
2023-01-29T09:46:21.323Z,1.20
2023-01-29T09:47:06.002Z,1.40
2023-01-29T09:47:48.810Z,1.50
2023-01-29T09:48:34.322Z,1.40
2023-01-29T09:49:28.106Z,1.30
2023-01-29T09:50:26.146Z,1.30
2023-01-29T09:51:17.111Z,1.30
2023-01-29T09:52:08.187Z,1.40
2023-01-29T09:52:57.941Z,1.30
2023-01-29T09:53:43.355Z,1.30
2023-01-29T09:55:33.230Z,1.40
2023-01-29T09:56:20.508Z,1.50
2023-01-29T09:57:02.537Z,1.50
2023-01-29T09:58:25.221Z,1.50
2023-01-29T09:59:11.923Z,1.50
2023-01-29T09:59:56.897Z,1.60
2023-01-29T10:00:52.205Z,1.50
2023-01-29T10:01:55.507Z,1.50
2023-01-29T10:02:55.303Z,1.60
2023-01-29T10:03:57.882Z,1.60
2023-01-29T10:05:11.913Z,1.70
2023-01-29T10:06:23.486Z,1.80
2023-01-29T10:07:07.861Z,1.80
2023-01-29T10:08:08.029Z,1.70
2023-01-29T10:09:05.093Z,1.80
2023-01-29T10:10:05.376Z,1.80
2023-01-29T10:11:05.681Z,1.70
2023-01-29T10:12:17.292Z,1.90
2023-01-29T10:13:18.561Z,1.90
2023-01-29T10:14:24.655Z,1.90
2023-01-29T10:15:58.071Z,1.90
2023-01-29T10:16:57.636Z,1.80
2023-01-29T10:17:57.010Z,2.00
2023-01-29T10:19:32.821Z,2.00
2023-01-29T10:20:32.239Z,2.10
2023-01-29T10:21:58.675Z,2.10
2023-01-29T10:23:01.304Z,2.20
2023-01-29T10:23:51.169Z,2.30
2023-01-29T10:24:41.814Z,2.30
2023-01-29T10:25:23.964Z,2.10
2023-01-29T10:26:11.421Z,2.30
2023-01-29T10:26:53.571Z,2.40
2023-01-29T10:27:38.611Z,2.30
2023-01-29T10:28:29.327Z,2.30
2023-01-29T10:29:18.211Z,2.10
2023-01-29T10:30:03.307Z,2.20
2023-01-29T10:30:53.583Z,2.20
2023-01-29T10:32:25.463Z,2.20
2023-01-29T10:33:16.493Z,2.30
2023-01-29T10:34:14.701Z,2.30